sensor_id;sensor_type;location;lat;lon;timestamp;P1;durP1;ratioP1;P2;durP2;ratioP2
37047;SDS011;23227;48.780;9.210;2024-01-15T00:00:53;3.42;;;2.45;;
37047;SDS011;23227;48.780;9.210;2024-01-15T00:03:55;3.38;;;2.35;;
37047;SDS011;23227;48.780;9.210;2024-01-15T00:06:59;3.90;;;2.67;;
37047;SDS011;23227;48.780;9.210;2024-01-15T00:10:02;4.20;;;2.73;;
37047;SDS011;23227;48.780;9.210;2024-01-15T00:16:08;3.73;;;2.47;;
37047;SDS011;23227;48.780;9.210;2024-01-15T00:19:11;3.27;;;2.43;;
37047;SDS011;23227;48.780;9.210;2024-01-15T00:22:15;4.20;;;2.78;;
37047;SDS011;23227;48.780;9.210;2024-01-15T00:25:18;3.17;;;2.40;;
37047;SDS011;23227;48.780;9.210;2024-01-15T00:28:21;4.22;;;2.72;;
37047;SDS011;23227;48.780;9.210;2024-01-15T00:31:23;3.75;;;2.88;;
37047;SDS011;23227;48.780;9.210;2024-01-15T00:34:26;3.55;;;2.50;;
37047;SDS011;23227;48.780;9.210;2024-01-15T00:37:30;3.42;;;2.30;;
37047;SDS011;23227;48.780;9.210;2024-01-15T00:40:33;3.70;;;2.43;;
37047;SDS011;23227;48.780;9.210;2024-01-15T00:43:36;3.55;;;2.38;;
37047;SDS011;23227;48.780;9.210;2024-01-15T00:46:42;4.40;;;2.80;;
37047;SDS011;23227;48.780;9.210;2024-01-15T00:49:45;4.17;;;2.70;;
37047;SDS011;23227;48.780;9.210;2024-01-15T00:52:49;4.72;;;2.65;;
37047;SDS011;23227;48.780;9.210;2024-01-15T00:55:52;3.70;;;2.40;;
37047;SDS011;23227;48.780;9.210;2024-01-15T00:58:55;4.07;;;2.67;;
37047;SDS011;23227;48.780;9.210;2024-01-15T01:01:57;3.75;;;2.47;;
37047;SDS011;23227;48.780;9.210;2024-01-15T01:05:00;3.42;;;2.53;;
37047;SDS011;23227;48.780;9.210;2024-01-15T01:08:04;3.08;;;2.10;;
37047;SDS011;23227;48.780;9.210;2024-01-15T01:11:07;3.20;;;2.60;;
37047;SDS011;23227;48.780;9.210;2024-01-15T01:14:10;3.63;;;2.60;;
37047;SDS011;23227;48.780;9.210;2024-01-15T01:17:13;3.63;;;2.75;;
37047;SDS011;23227;48.780;9.210;2024-01-15T01:20:16;3.65;;;2.47;;
37047;SDS011;23227;48.780;9.210;2024-01-15T01:23:21;3.07;;;2.17;;
37047;SDS011;23227;48.780;9.210;2024-01-15T01:26:23;3.17;;;2.30;;
37047;SDS011;23227;48.780;9.210;2024-01-15T01:29:26;3.45;;;2.30;;
37047;SDS011;23227;48.780;9.210;2024-01-15T01:32:29;2.88;;;2.00;;
37047;SDS011;23227;48.780;9.210;2024-01-15T01:35:31;3.33;;;2.40;;
37047;SDS011;23227;48.780;9.210;2024-01-15T01:38:35;2.97;;;2.05;;
37047;SDS011;23227;48.780;9.210;2024-01-15T01:41:38;4.27;;;2.63;;
37047;SDS011;23227;48.780;9.210;2024-01-15T01:44:41;4.20;;;2.50;;
37047;SDS011;23227;48.780;9.210;2024-01-15T01:47:43;2.50;;;1.75;;
37047;SDS011;23227;48.780;9.210;2024-01-15T01:50:46;3.08;;;2.20;;
37047;SDS011;23227;48.780;9.210;2024-01-15T01:53:53;3.38;;;2.15;;
37047;SDS011;23227;48.780;9.210;2024-01-15T01:56:55;3.10;;;1.93;;
37047;SDS011;23227;48.780;9.210;2024-01-15T01:59:59;3.43;;;2.30;;
37047;SDS011;23227;48.780;9.210;2024-01-15T02:06:05;3.03;;;1.97;;
37047;SDS011;23227;48.780;9.210;2024-01-15T02:09:11;3.43;;;2.30;;
37047;SDS011;23227;48.780;9.210;2024-01-15T02:12:16;2.37;;;1.90;;
37047;SDS011;23227;48.780;9.210;2024-01-15T02:18:22;2.73;;;1.83;;
37047;SDS011;23227;48.780;9.210;2024-01-15T02:21:25;3.42;;;2.13;;
37047;SDS011;23227;48.780;9.210;2024-01-15T02:24:31;2.93;;;1.90;;
37047;SDS011;23227;48.780;9.210;2024-01-15T02:27:34;4.40;;;2.20;;
37047;SDS011;23227;48.780;9.210;2024-01-15T02:30:36;3.08;;;1.88;;
37047;SDS011;23227;48.780;9.210;2024-01-15T02:33:41;2.63;;;2.00;;
37047;SDS011;23227;48.780;9.210;2024-01-15T02:36:44;3.27;;;2.17;;
37047;SDS011;23227;48.780;9.210;2024-01-15T02:39:48;3.15;;;2.13;;
37047;SDS011;23227;48.780;9.210;2024-01-15T02:42:51;2.43;;;2.03;;
37047;SDS011;23227;48.780;9.210;2024-01-15T02:45:54;2.20;;;1.75;;
37047;SDS011;23227;48.780;9.210;2024-01-15T02:48:56;3.50;;;2.35;;
37047;SDS011;23227;48.780;9.210;2024-01-15T02:51:59;2.88;;;1.77;;
37047;SDS011;23227;48.780;9.210;2024-01-15T02:55:03;3.47;;;2.10;;
37047;SDS011;23227;48.780;9.210;2024-01-15T02:58:06;2.10;;;1.77;;
37047;SDS011;23227;48.780;9.210;2024-01-15T03:01:10;3.20;;;1.83;;
37047;SDS011;23227;48.780;9.210;2024-01-15T03:04:13;3.58;;;2.13;;
37047;SDS011;23227;48.780;9.210;2024-01-15T03:07:16;3.47;;;2.05;;
37047;SDS011;23227;48.780;9.210;2024-01-15T03:10:20;2.40;;;1.88;;
37047;SDS011;23227;48.780;9.210;2024-01-15T03:13:22;2.43;;;1.87;;
37047;SDS011;23227;48.780;9.210;2024-01-15T03:16:25;2.63;;;1.88;;
37047;SDS011;23227;48.780;9.210;2024-01-15T03:19:27;3.40;;;1.95;;
37047;SDS011;23227;48.780;9.210;2024-01-15T03:22:30;2.10;;;1.52;;
37047;SDS011;23227;48.780;9.210;2024-01-15T03:25:34;3.08;;;1.80;;
37047;SDS011;23227;48.780;9.210;2024-01-15T03:28:37;2.77;;;1.93;;
37047;SDS011;23227;48.780;9.210;2024-01-15T03:31:39;2.58;;;1.90;;
37047;SDS011;23227;48.780;9.210;2024-01-15T03:34:42;2.20;;;1.77;;
37047;SDS011;23227;48.780;9.210;2024-01-15T03:37:45;2.47;;;1.88;;
37047;SDS011;23227;48.780;9.210;2024-01-15T03:40:49;3.03;;;2.28;;
37047;SDS011;23227;48.780;9.210;2024-01-15T03:43:52;3.00;;;1.90;;
37047;SDS011;23227;48.780;9.210;2024-01-15T03:46:54;2.13;;;1.70;;
37047;SDS011;23227;48.780;9.210;2024-01-15T03:49:57;2.65;;;1.90;;
37047;SDS011;23227;48.780;9.210;2024-01-15T03:53:00;2.10;;;1.70;;
37047;SDS011;23227;48.780;9.210;2024-01-15T03:56:04;3.30;;;2.30;;
37047;SDS011;23227;48.780;9.210;2024-01-15T03:59:07;2.50;;;1.83;;
37047;SDS011;23227;48.780;9.210;2024-01-15T04:02:09;2.05;;;1.42;;
37047;SDS011;23227;48.780;9.210;2024-01-15T04:05:12;2.55;;;1.75;;
37047;SDS011;23227;48.780;9.210;2024-01-15T04:08:14;2.47;;;1.60;;
37047;SDS011;23227;48.780;9.210;2024-01-15T04:11:18;2.67;;;1.90;;
37047;SDS011;23227;48.780;9.210;2024-01-15T04:14:21;2.70;;;1.63;;
37047;SDS011;23227;48.780;9.210;2024-01-15T04:17:23;2.42;;;1.90;;
37047;SDS011;23227;48.780;9.210;2024-01-15T04:20:26;2.50;;;1.85;;
37047;SDS011;23227;48.780;9.210;2024-01-15T04:23:29;2.17;;;1.83;;
37047;SDS011;23227;48.780;9.210;2024-01-15T04:26:32;2.13;;;1.52;;
37047;SDS011;23227;48.780;9.210;2024-01-15T04:29:37;2.03;;;1.60;;
37047;SDS011;23227;48.780;9.210;2024-01-15T04:32:42;2.30;;;1.57;;
37047;SDS011;23227;48.780;9.210;2024-01-15T04:35:44;1.95;;;1.50;;
37047;SDS011;23227;48.780;9.210;2024-01-15T04:38:47;2.22;;;1.60;;
37047;SDS011;23227;48.780;9.210;2024-01-15T04:41:51;2.60;;;1.65;;
37047;SDS011;23227;48.780;9.210;2024-01-15T04:44:53;2.80;;;1.57;;
37047;SDS011;23227;48.780;9.210;2024-01-15T04:47:56;1.92;;;1.38;;
37047;SDS011;23227;48.780;9.210;2024-01-15T04:50:59;1.85;;;1.55;;
37047;SDS011;23227;48.780;9.210;2024-01-15T04:54:02;2.03;;;1.52;;
37047;SDS011;23227;48.780;9.210;2024-01-15T04:57:06;2.35;;;1.58;;
37047;SDS011;23227;48.780;9.210;2024-01-15T05:00:09;1.70;;;1.10;;
37047;SDS011;23227;48.780;9.210;2024-01-15T05:03:13;2.13;;;1.40;;
37047;SDS011;23227;48.780;9.210;2024-01-15T05:06:16;2.05;;;1.50;;
37047;SDS011;23227;48.780;9.210;2024-01-15T05:09:19;1.52;;;1.20;;
37047;SDS011;23227;48.780;9.210;2024-01-15T05:12:22;2.28;;;1.58;;
37047;SDS011;23227;48.780;9.210;2024-01-15T05:15:25;2.57;;;1.60;;
37047;SDS011;23227;48.780;9.210;2024-01-15T05:18:28;1.40;;;1.00;;
37047;SDS011;23227;48.780;9.210;2024-01-15T05:21:31;1.88;;;1.27;;
37047;SDS011;23227;48.780;9.210;2024-01-15T05:24:33;2.60;;;1.92;;
37047;SDS011;23227;48.780;9.210;2024-01-15T05:27:37;2.58;;;1.58;;
37047;SDS011;23227;48.780;9.210;2024-01-15T05:30:40;2.13;;;1.27;;
37047;SDS011;23227;48.780;9.210;2024-01-15T05:33:43;1.52;;;1.20;;
37047;SDS011;23227;48.780;9.210;2024-01-15T05:36:46;1.52;;;1.38;;
37047;SDS011;23227;48.780;9.210;2024-01-15T05:39:49;1.77;;;1.23;;
37047;SDS011;23227;48.780;9.210;2024-01-15T05:42:53;1.70;;;1.50;;
37047;SDS011;23227;48.780;9.210;2024-01-15T05:45:56;1.57;;;1.10;;
37047;SDS011;23227;48.780;9.210;2024-01-15T05:52:02;1.77;;;1.40;;
37047;SDS011;23227;48.780;9.210;2024-01-15T05:55:05;1.67;;;1.10;;
37047;SDS011;23227;48.780;9.210;2024-01-15T05:58:09;1.10;;;1.00;;
37047;SDS011;23227;48.780;9.210;2024-01-15T06:01:12;2.57;;;1.60;;
37047;SDS011;23227;48.780;9.210;2024-01-15T06:04:14;1.63;;;1.35;;
37047;SDS011;23227;48.780;9.210;2024-01-15T06:07:17;1.73;;;1.00;;
37047;SDS011;23227;48.780;9.210;2024-01-15T06:10:19;1.95;;;1.35;;
37047;SDS011;23227;48.780;9.210;2024-01-15T06:13:23;1.40;;;1.10;;
37047;SDS011;23227;48.780;9.210;2024-01-15T06:16:26;1.30;;;1.03;;
37047;SDS011;23227;48.780;9.210;2024-01-15T06:19:30;2.00;;;1.30;;
37047;SDS011;23227;48.780;9.210;2024-01-15T06:22:33;2.22;;;1.67;;
37047;SDS011;23227;48.780;9.210;2024-01-15T06:25:37;1.60;;;1.23;;
37047;SDS011;23227;48.780;9.210;2024-01-15T06:28:40;1.38;;;1.02;;
37047;SDS011;23227;48.780;9.210;2024-01-15T06:31:43;1.83;;;1.03;;
37047;SDS011;23227;48.780;9.210;2024-01-15T06:34:46;1.60;;;1.30;;
37047;SDS011;23227;48.780;9.210;2024-01-15T06:37:49;1.60;;;1.13;;
37047;SDS011;23227;48.780;9.210;2024-01-15T06:40:51;1.38;;;1.08;;
37047;SDS011;23227;48.780;9.210;2024-01-15T06:43:56;1.83;;;1.17;;
37047;SDS011;23227;48.780;9.210;2024-01-15T06:46:58;1.40;;;1.10;;
37047;SDS011;23227;48.780;9.210;2024-01-15T06:50:04;1.63;;;1.10;;
37047;SDS011;23227;48.780;9.210;2024-01-15T06:53:08;1.10;;;0.90;;
37047;SDS011;23227;48.780;9.210;2024-01-15T06:56:11;1.35;;;1.13;;
37047;SDS011;23227;48.780;9.210;2024-01-15T06:59:15;1.30;;;1.00;;
37047;SDS011;23227;48.780;9.210;2024-01-15T07:02:20;2.00;;;1.17;;
37047;SDS011;23227;48.780;9.210;2024-01-15T07:05:23;2.15;;;1.13;;
37047;SDS011;23227;48.780;9.210;2024-01-15T07:08:26;1.13;;;0.80;;
37047;SDS011;23227;48.780;9.210;2024-01-15T07:11:28;1.60;;;1.30;;
37047;SDS011;23227;48.780;9.210;2024-01-15T07:14:32;1.02;;;0.88;;
37047;SDS011;23227;48.780;9.210;2024-01-15T07:17:35;1.23;;;0.90;;
37047;SDS011;23227;48.780;9.210;2024-01-15T07:20:40;1.23;;;1.00;;
37047;SDS011;23227;48.780;9.210;2024-01-15T07:23:43;1.60;;;1.10;;
37047;SDS011;23227;48.780;9.210;2024-01-15T07:26:45;1.83;;;0.80;;
37047;SDS011;23227;48.780;9.210;2024-01-15T07:29:49;1.35;;;1.00;;
37047;SDS011;23227;48.780;9.210;2024-01-15T07:32:52;1.70;;;1.10;;
37047;SDS011;23227;48.780;9.210;2024-01-15T07:35:55;1.10;;;0.90;;
37047;SDS011;23227;48.780;9.210;2024-01-15T07:39:01;1.03;;;0.90;;
37047;SDS011;23227;48.780;9.210;2024-01-15T07:42:04;6.13;;;2.70;;
37047;SDS011;23227;48.780;9.210;2024-01-15T07:48:11;8.80;;;4.13;;
37047;SDS011;23227;48.780;9.210;2024-01-15T07:51:14;11.85;;;4.50;;
37047;SDS011;23227;48.780;9.210;2024-01-15T07:54:16;9.63;;;3.55;;
37047;SDS011;23227;48.780;9.210;2024-01-15T07:57:19;7.97;;;2.60;;
37047;SDS011;23227;48.780;9.210;2024-01-15T08:00:23;5.93;;;2.92;;
37047;SDS011;23227;48.780;9.210;2024-01-15T08:03:26;6.87;;;2.80;;
37047;SDS011;23227;48.780;9.210;2024-01-15T08:06:29;5.03;;;2.85;;
37047;SDS011;23227;48.780;9.210;2024-01-15T08:09:31;4.35;;;2.40;;
37047;SDS011;23227;48.780;9.210;2024-01-15T08:12:34;5.55;;;3.15;;
37047;SDS011;23227;48.780;9.210;2024-01-15T08:15:38;6.22;;;2.90;;
37047;SDS011;23227;48.780;9.210;2024-01-15T08:18:41;4.67;;;2.60;;
37047;SDS011;23227;48.780;9.210;2024-01-15T08:21:45;5.30;;;2.60;;
37047;SDS011;23227;48.780;9.210;2024-01-15T08:24:48;8.25;;;2.83;;
37047;SDS011;23227;48.780;9.210;2024-01-15T08:27:53;5.13;;;2.40;;
37047;SDS011;23227;48.780;9.210;2024-01-15T08:30:57;6.10;;;1.85;;
37047;SDS011;23227;48.780;9.210;2024-01-15T08:34:00;7.90;;;2.73;;
37047;SDS011;23227;48.780;9.210;2024-01-15T08:40:06;2.10;;;1.63;;
37047;SDS011;23227;48.780;9.210;2024-01-15T08:43:09;6.03;;;2.20;;
37047;SDS011;23227;48.780;9.210;2024-01-15T08:46:13;5.50;;;2.05;;
37047;SDS011;23227;48.780;9.210;2024-01-15T08:49:16;3.00;;;1.80;;
37047;SDS011;23227;48.780;9.210;2024-01-15T08:52:18;13.48;;;2.00;;
37047;SDS011;23227;48.780;9.210;2024-01-15T08:55:21;3.70;;;1.52;;
37047;SDS011;23227;48.780;9.210;2024-01-15T09:01:28;3.83;;;1.97;;
37047;SDS011;23227;48.780;9.210;2024-01-15T09:04:31;3.43;;;2.00;;
37047;SDS011;23227;48.780;9.210;2024-01-15T09:07:34;6.90;;;1.70;;
37047;SDS011;23227;48.780;9.210;2024-01-15T09:10:36;2.35;;;1.77;;
37047;SDS011;23227;48.780;9.210;2024-01-15T09:13:39;9.20;;;1.45;;
37047;SDS011;23227;48.780;9.210;2024-01-15T09:16:43;4.75;;;1.65;;
37047;SDS011;23227;48.780;9.210;2024-01-15T09:19:46;3.20;;;1.40;;
37047;SDS011;23227;48.780;9.210;2024-01-15T09:22:48;3.50;;;1.67;;
37047;SDS011;23227;48.780;9.210;2024-01-15T09:25:51;2.33;;;1.30;;
37047;SDS011;23227;48.780;9.210;2024-01-15T09:28:54;3.95;;;1.50;;
37047;SDS011;23227;48.780;9.210;2024-01-15T09:31:58;4.78;;;1.95;;
37047;SDS011;23227;48.780;9.210;2024-01-15T09:35:01;1.63;;;1.07;;
37047;SDS011;23227;48.780;9.210;2024-01-15T09:38:04;2.28;;;1.23;;
37047;SDS011;23227;48.780;9.210;2024-01-15T09:41:07;5.85;;;1.33;;
37047;SDS011;23227;48.780;9.210;2024-01-15T09:44:09;3.22;;;1.20;;
37047;SDS011;23227;48.780;9.210;2024-01-15T09:47:14;2.53;;;1.40;;
37047;SDS011;23227;48.780;9.210;2024-01-15T09:50:18;2.53;;;0.83;;
37047;SDS011;23227;48.780;9.210;2024-01-15T09:53:21;3.27;;;0.93;;
37047;SDS011;23227;48.780;9.210;2024-01-15T09:56:24;2.90;;;1.30;;
37047;SDS011;23227;48.780;9.210;2024-01-15T09:59:27;3.50;;;1.20;;
37047;SDS011;23227;48.780;9.210;2024-01-15T10:05:34;1.37;;;1.07;;
37047;SDS011;23227;48.780;9.210;2024-01-15T10:08:37;1.95;;;1.13;;
37047;SDS011;23227;48.780;9.210;2024-01-15T10:11:40;2.20;;;1.13;;
37047;SDS011;23227;48.780;9.210;2024-01-15T10:17:47;1.50;;;1.00;;
37047;SDS011;23227;48.780;9.210;2024-01-15T10:20:50;3.90;;;1.27;;
37047;SDS011;23227;48.780;9.210;2024-01-15T10:23:53;2.17;;;0.98;;
37047;SDS011;23227;48.780;9.210;2024-01-15T10:30:07;3.70;;;1.00;;
37047;SDS011;23227;48.780;9.210;2024-01-15T10:33:11;0.87;;;0.70;;
37047;SDS011;23227;48.780;9.210;2024-01-15T10:36:14;1.97;;;1.10;;
37047;SDS011;23227;48.780;9.210;2024-01-15T10:39:18;3.57;;;1.10;;
37047;SDS011;23227;48.780;9.210;2024-01-15T10:42:20;2.30;;;1.38;;
37047;SDS011;23227;48.780;9.210;2024-01-15T10:45:23;2.13;;;1.00;;
37047;SDS011;23227;48.780;9.210;2024-01-15T10:48:28;1.90;;;0.90;;
37047;SDS011;23227;48.780;9.210;2024-01-15T10:51:32;1.37;;;1.00;;
37047;SDS011;23227;48.780;9.210;2024-01-15T10:54:35;2.03;;;0.80;;
37047;SDS011;23227;48.780;9.210;2024-01-15T10:57:39;2.47;;;1.10;;
37047;SDS011;23227;48.780;9.210;2024-01-15T11:00:42;1.73;;;1.17;;
37047;SDS011;23227;48.780;9.210;2024-01-15T11:03:47;2.97;;;1.10;;
37047;SDS011;23227;48.780;9.210;2024-01-15T11:06:50;3.13;;;1.10;;
37047;SDS011;23227;48.780;9.210;2024-01-15T11:09:55;1.80;;;1.53;;
37047;SDS011;23227;48.780;9.210;2024-01-15T11:12:59;2.30;;;1.23;;
37047;SDS011;23227;48.780;9.210;2024-01-15T11:16:03;2.33;;;1.00;;
37047;SDS011;23227;48.780;9.210;2024-01-15T11:19:08;3.90;;;1.10;;
37047;SDS011;23227;48.780;9.210;2024-01-15T11:22:47;1.57;;;1.00;;
37047;SDS011;23227;48.780;9.210;2024-01-15T11:25:49;2.63;;;1.03;;
37047;SDS011;23227;48.780;9.210;2024-01-15T11:28:52;2.72;;;1.13;;
37047;SDS011;23227;48.780;9.210;2024-01-15T11:31:58;3.25;;;1.13;;
37047;SDS011;23227;48.780;9.210;2024-01-15T11:35:04;1.77;;;0.90;;
37047;SDS011;23227;48.780;9.210;2024-01-15T11:38:10;1.93;;;1.37;;
37047;SDS011;23227;48.780;9.210;2024-01-15T11:41:13;2.38;;;1.00;;
37047;SDS011;23227;48.780;9.210;2024-01-15T11:44:17;2.63;;;1.00;;
37047;SDS011;23227;48.780;9.210;2024-01-15T11:47:24;1.30;;;1.13;;
37047;SDS011;23227;48.780;9.210;2024-01-15T11:50:42;3.10;;;1.27;;
37047;SDS011;23227;48.780;9.210;2024-01-15T11:53:47;1.47;;;1.00;;
37047;SDS011;23227;48.780;9.210;2024-01-15T11:56:51;3.07;;;1.53;;
37047;SDS011;23227;48.780;9.210;2024-01-15T12:02:58;2.80;;;1.10;;
37047;SDS011;23227;48.780;9.210;2024-01-15T12:06:06;3.80;;;1.27;;
37047;SDS011;23227;48.780;9.210;2024-01-15T12:09:09;4.43;;;0.90;;
37047;SDS011;23227;48.780;9.210;2024-01-15T12:12:13;2.03;;;1.00;;
37047;SDS011;23227;48.780;9.210;2024-01-15T12:15:28;1.20;;;0.73;;
37047;SDS011;23227;48.780;9.210;2024-01-15T12:18:31;0.90;;;0.80;;
37047;SDS011;23227;48.780;9.210;2024-01-15T12:21:36;2.55;;;0.90;;
37047;SDS011;23227;48.780;9.210;2024-01-15T12:24:41;3.10;;;1.03;;
37047;SDS011;23227;48.780;9.210;2024-01-15T12:27:45;1.20;;;0.73;;
37047;SDS011;23227;48.780;9.210;2024-01-15T12:30:49;1.30;;;0.87;;
37047;SDS011;23227;48.780;9.210;2024-01-15T12:33:52;0.80;;;0.53;;
37047;SDS011;23227;48.780;9.210;2024-01-15T12:36:58;1.38;;;1.10;;
37047;SDS011;23227;48.780;9.210;2024-01-15T12:40:00;1.63;;;0.90;;
37047;SDS011;23227;48.780;9.210;2024-01-15T12:43:05;2.00;;;0.70;;
37047;SDS011;23227;48.780;9.210;2024-01-15T12:46:09;1.10;;;0.83;;
37047;SDS011;23227;48.780;9.210;2024-01-15T12:49:15;2.53;;;0.63;;
37047;SDS011;23227;48.780;9.210;2024-01-15T12:52:20;1.80;;;0.67;;
37047;SDS011;23227;48.780;9.210;2024-01-15T12:55:23;0.80;;;0.70;;
37047;SDS011;23227;48.780;9.210;2024-01-15T13:01:29;1.73;;;0.70;;
37047;SDS011;23227;48.780;9.210;2024-01-15T13:04:33;0.70;;;0.70;;
37047;SDS011;23227;48.780;9.210;2024-01-15T13:07:38;2.27;;;0.80;;
37047;SDS011;23227;48.780;9.210;2024-01-15T13:10:42;3.83;;;0.70;;
37047;SDS011;23227;48.780;9.210;2024-01-15T13:13:45;0.70;;;0.60;;
37047;SDS011;23227;48.780;9.210;2024-01-15T13:16:48;1.13;;;0.73;;
37047;SDS011;23227;48.780;9.210;2024-01-15T13:19:51;1.17;;;0.65;;
37047;SDS011;23227;48.780;9.210;2024-01-15T13:22:56;1.00;;;0.80;;
37047;SDS011;23227;48.780;9.210;2024-01-15T13:25:59;1.77;;;0.87;;
37047;SDS011;23227;48.780;9.210;2024-01-15T13:29:02;1.53;;;0.80;;
37047;SDS011;23227;48.780;9.210;2024-01-15T13:32:05;0.80;;;0.60;;
37047;SDS011;23227;48.780;9.210;2024-01-15T13:35:08;0.63;;;0.60;;
37047;SDS011;23227;48.780;9.210;2024-01-15T13:38:15;0.70;;;0.63;;
37047;SDS011;23227;48.780;9.210;2024-01-15T13:41:18;1.00;;;0.77;;
37047;SDS011;23227;48.780;9.210;2024-01-15T13:44:23;0.97;;;0.70;;
37047;SDS011;23227;48.780;9.210;2024-01-15T13:47:26;0.87;;;0.67;;
37047;SDS011;23227;48.780;9.210;2024-01-15T13:50:29;0.40;;;0.40;;
37047;SDS011;23227;48.780;9.210;2024-01-15T13:56:36;0.77;;;0.60;;
37047;SDS011;23227;48.780;9.210;2024-01-15T13:59:38;1.13;;;0.90;;
37047;SDS011;23227;48.780;9.210;2024-01-15T14:02:41;0.75;;;0.60;;
37047;SDS011;23227;48.780;9.210;2024-01-15T14:05:44;1.55;;;0.80;;
37047;SDS011;23227;48.780;9.210;2024-01-15T14:08:48;2.05;;;0.68;;
37047;SDS011;23227;48.780;9.210;2024-01-15T14:11:50;0.90;;;0.80;;
37047;SDS011;23227;48.780;9.210;2024-01-15T14:14:53;4.35;;;0.57;;
37047;SDS011;23227;48.780;9.210;2024-01-15T14:17:55;1.88;;;1.25;;
37047;SDS011;23227;48.780;9.210;2024-01-15T14:20:59;0.67;;;0.60;;
37047;SDS011;23227;48.780;9.210;2024-01-15T14:24:03;1.65;;;0.85;;
37047;SDS011;23227;48.780;9.210;2024-01-15T14:27:07;0.60;;;0.60;;
37047;SDS011;23227;48.780;9.210;2024-01-15T14:30:10;1.30;;;0.80;;
37047;SDS011;23227;48.780;9.210;2024-01-15T14:33:14;1.57;;;0.80;;
37047;SDS011;23227;48.780;9.210;2024-01-15T14:36:17;1.33;;;0.88;;
37047;SDS011;23227;48.780;9.210;2024-01-15T14:39:22;1.00;;;0.80;;
37047;SDS011;23227;48.780;9.210;2024-01-15T14:42:25;1.90;;;0.70;;
37047;SDS011;23227;48.780;9.210;2024-01-15T14:45:28;0.85;;;0.57;;
37047;SDS011;23227;48.780;9.210;2024-01-15T14:48:31;1.90;;;0.67;;
37047;SDS011;23227;48.780;9.210;2024-01-15T14:51:34;1.17;;;0.80;;
37047;SDS011;23227;48.780;9.210;2024-01-15T14:54:38;1.02;;;0.57;;
37047;SDS011;23227;48.780;9.210;2024-01-15T14:57:41;3.00;;;0.60;;
37047;SDS011;23227;48.780;9.210;2024-01-15T15:00:44;0.73;;;0.57;;
37047;SDS011;23227;48.780;9.210;2024-01-15T15:03:47;2.20;;;1.30;;
37047;SDS011;23227;48.780;9.210;2024-01-15T15:06:50;2.75;;;2.00;;
37047;SDS011;23227;48.780;9.210;2024-01-15T15:09:54;4.25;;;1.65;;
37047;SDS011;23227;48.780;9.210;2024-01-15T15:12:57;1.83;;;1.20;;
37047;SDS011;23227;48.780;9.210;2024-01-15T15:16:00;1.50;;;0.98;;
37047;SDS011;23227;48.780;9.210;2024-01-15T15:19:02;2.22;;;0.80;;
37047;SDS011;23227;48.780;9.210;2024-01-15T15:22:05;1.55;;;0.88;;
37047;SDS011;23227;48.780;9.210;2024-01-15T15:25:09;0.90;;;0.73;;
37047;SDS011;23227;48.780;9.210;2024-01-15T15:28:13;1.00;;;0.80;;
37047;SDS011;23227;48.780;9.210;2024-01-15T15:31:17;1.70;;;0.73;;
37047;SDS011;23227;48.780;9.210;2024-01-15T15:34:20;1.00;;;0.90;;
37047;SDS011;23227;48.780;9.210;2024-01-15T15:37:22;0.73;;;0.70;;
37047;SDS011;23227;48.780;9.210;2024-01-15T15:40:26;1.10;;;0.88;;
37047;SDS011;23227;48.780;9.210;2024-01-15T15:43:29;0.80;;;0.60;;
37047;SDS011;23227;48.780;9.210;2024-01-15T15:46:32;0.95;;;0.60;;
37047;SDS011;23227;48.780;9.210;2024-01-15T15:49:34;2.58;;;0.93;;
37047;SDS011;23227;48.780;9.210;2024-01-15T15:52:37;1.25;;;1.00;;
37047;SDS011;23227;48.780;9.210;2024-01-15T15:55:41;1.10;;;0.95;;
37047;SDS011;23227;48.780;9.210;2024-01-15T15:58:45;0.93;;;0.80;;
37047;SDS011;23227;48.780;9.210;2024-01-15T16:01:47;2.85;;;1.05;;
37047;SDS011;23227;48.780;9.210;2024-01-15T16:04:50;0.73;;;0.70;;
37047;SDS011;23227;48.780;9.210;2024-01-15T16:07:53;1.05;;;0.73;;
37047;SDS011;23227;48.780;9.210;2024-01-15T16:10:57;0.90;;;0.73;;
37047;SDS011;23227;48.780;9.210;2024-01-15T16:14:00;1.13;;;0.70;;
37047;SDS011;23227;48.780;9.210;2024-01-15T16:17:04;1.20;;;0.70;;
37047;SDS011;23227;48.780;9.210;2024-01-15T16:20:27;0.50;;;0.50;;
37047;SDS011;23227;48.780;9.210;2024-01-15T16:23:50;1.23;;;0.75;;
37047;SDS011;23227;48.780;9.210;2024-01-15T16:30:17;1.53;;;0.67;;
37047;SDS011;23227;48.780;9.210;2024-01-15T16:33:33;3.20;;;1.87;;
37047;SDS011;23227;48.780;9.210;2024-01-15T16:36:36;3.95;;;2.75;;
37047;SDS011;23227;48.780;9.210;2024-01-15T16:39:38;4.07;;;2.53;;
37047;SDS011;23227;48.780;9.210;2024-01-15T16:42:43;3.42;;;2.20;;
37047;SDS011;23227;48.780;9.210;2024-01-15T16:45:46;4.27;;;2.10;;
37047;SDS011;23227;48.780;9.210;2024-01-15T16:48:49;4.88;;;1.20;;
37047;SDS011;23227;48.780;9.210;2024-01-15T16:51:52;2.30;;;1.50;;
37047;SDS011;23227;48.780;9.210;2024-01-15T16:54:55;2.00;;;1.52;;
37047;SDS011;23227;48.780;9.210;2024-01-15T16:57:59;1.92;;;1.23;;
37047;SDS011;23227;48.780;9.210;2024-01-15T17:01:02;1.87;;;1.10;;
37047;SDS011;23227;48.780;9.210;2024-01-15T17:04:04;3.50;;;1.30;;
37047;SDS011;23227;48.780;9.210;2024-01-15T17:10:11;1.92;;;1.08;;
37047;SDS011;23227;48.780;9.210;2024-01-15T17:13:16;3.90;;;1.20;;
37047;SDS011;23227;48.780;9.210;2024-01-15T17:16:19;1.83;;;1.30;;
37047;SDS011;23227;48.780;9.210;2024-01-15T17:19:23;1.20;;;0.90;;
37047;SDS011;23227;48.780;9.210;2024-01-15T17:22:27;1.47;;;1.00;;
37047;SDS011;23227;48.780;9.210;2024-01-15T17:25:32;2.70;;;1.03;;
37047;SDS011;23227;48.780;9.210;2024-01-15T17:28:36;2.95;;;1.20;;
37047;SDS011;23227;48.780;9.210;2024-01-15T17:31:39;2.90;;;1.00;;
37047;SDS011;23227;48.780;9.210;2024-01-15T17:34:42;1.20;;;0.75;;
37047;SDS011;23227;48.780;9.210;2024-01-15T17:37:44;1.60;;;0.95;;
37047;SDS011;23227;48.780;9.210;2024-01-15T17:40:47;1.10;;;0.82;;
37047;SDS011;23227;48.780;9.210;2024-01-15T17:43:51;2.05;;;0.70;;
37047;SDS011;23227;48.780;9.210;2024-01-15T17:46:54;2.30;;;1.00;;
37047;SDS011;23227;48.780;9.210;2024-01-15T17:49:57;1.30;;;1.02;;
37047;SDS011;23227;48.780;9.210;2024-01-15T17:52:59;1.30;;;0.70;;
37047;SDS011;23227;48.780;9.210;2024-01-15T17:56:03;1.53;;;1.20;;
37047;SDS011;23227;48.780;9.210;2024-01-15T17:59:07;1.37;;;1.00;;
37047;SDS011;23227;48.780;9.210;2024-01-15T18:02:10;1.33;;;0.80;;
37047;SDS011;23227;48.780;9.210;2024-01-15T18:05:13;1.77;;;1.15;;
37047;SDS011;23227;48.780;9.210;2024-01-15T18:08:15;1.02;;;0.80;;
37047;SDS011;23227;48.780;9.210;2024-01-15T18:11:18;1.23;;;1.02;;
37047;SDS011;23227;48.780;9.210;2024-01-15T18:14:22;1.25;;;1.02;;
37047;SDS011;23227;48.780;9.210;2024-01-15T18:17:25;1.60;;;0.90;;
37047;SDS011;23227;48.780;9.210;2024-01-15T18:20:28;1.45;;;0.95;;
37047;SDS011;23227;48.780;9.210;2024-01-15T18:23:30;1.60;;;0.70;;
37047;SDS011;23227;48.780;9.210;2024-01-15T18:26:35;1.23;;;0.80;;
37047;SDS011;23227;48.780;9.210;2024-01-15T18:29:39;1.77;;;0.97;;
37047;SDS011;23227;48.780;9.210;2024-01-15T18:32:42;1.10;;;0.93;;
37047;SDS011;23227;48.780;9.210;2024-01-15T18:35:44;1.42;;;0.85;;
37047;SDS011;23227;48.780;9.210;2024-01-15T18:38:48;1.87;;;0.80;;
37047;SDS011;23227;48.780;9.210;2024-01-15T18:41:51;1.20;;;0.85;;
37047;SDS011;23227;48.780;9.210;2024-01-15T18:44:56;3.30;;;2.10;;
37047;SDS011;23227;48.780;9.210;2024-01-15T18:47:58;3.07;;;1.23;;
37047;SDS011;23227;48.780;9.210;2024-01-15T18:51:01;5.60;;;1.33;;
37047;SDS011;23227;48.780;9.210;2024-01-15T18:54:04;2.20;;;1.33;;
37047;SDS011;23227;48.780;9.210;2024-01-15T18:57:07;2.15;;;1.35;;
37047;SDS011;23227;48.780;9.210;2024-01-15T19:03:15;2.83;;;1.00;;
37047;SDS011;23227;48.780;9.210;2024-01-15T19:06:17;1.38;;;0.80;;
37047;SDS011;23227;48.780;9.210;2024-01-15T19:09:20;1.33;;;0.90;;
37047;SDS011;23227;48.780;9.210;2024-01-15T19:12:23;0.85;;;0.68;;
37047;SDS011;23227;48.780;9.210;2024-01-15T19:15:27;2.97;;;1.00;;